createdAt,value
2022-11-08T00:00:42.440Z,101217.44
2022-11-08T00:03:10.421Z,101200.78
2022-11-08T00:05:55.678Z,101216.53
2022-11-08T00:08:40.914Z,101223.25
2022-11-08T00:11:26.157Z,101205.16
2022-11-08T00:14:00.484Z,101213.03
2022-11-08T00:16:30.724Z,101198.06
2022-11-08T00:18:58.672Z,101205.00
2022-11-08T00:21:26.908Z,101207.41
2022-11-08T00:23:55.470Z,101207.47
2022-11-08T00:26:23.567Z,101200.94
2022-11-08T00:28:51.550Z,101205.22
2022-11-08T00:31:19.573Z,101207.19
2022-11-08T00:33:48.848Z,101204.13
2022-11-08T00:36:16.840Z,101203.38
2022-11-08T00:38:45.084Z,101180.44
2022-11-08T00:41:13.572Z,101188.72
2022-11-08T00:43:41.485Z,101202.13
2022-11-08T00:46:09.736Z,101191.81
2022-11-08T00:48:37.944Z,101195.19
2022-11-08T00:51:08.708Z,101194.09
2022-11-08T00:53:38.725Z,101190.50
2022-11-08T00:56:08.666Z,101190.38
2022-11-08T00:58:36.585Z,101190.84
2022-11-08T01:01:10.881Z,101197.56
2022-11-08T01:03:39.127Z,101203.09
2022-11-08T01:06:10.266Z,101198.91
2022-11-08T01:08:38.238Z,101193.03
2022-11-08T01:11:08.590Z,101193.66
2022-11-08T01:13:37.078Z,101199.66
2022-11-08T01:16:08.551Z,101202.19
2022-11-08T01:18:36.480Z,101195.41
2022-11-08T01:21:05.490Z,101154.09
2022-11-08T01:23:35.932Z,101195.25
2022-11-08T01:26:05.627Z,101204.81
2022-11-08T01:28:33.907Z,101204.88
2022-11-08T01:31:05.088Z,101203.94
2022-11-08T01:33:33.088Z,101196.53
2022-11-08T01:36:01.118Z,101194.94
2022-11-08T01:38:29.172Z,101191.66
2022-11-08T01:40:58.496Z,101202.19
2022-11-08T01:43:41.296Z,101198.41
2022-11-08T01:46:32.137Z,101184.41
2022-11-08T01:49:08.998Z,101201.91
2022-11-08T01:51:41.618Z,101189.06
2022-11-08T01:54:14.482Z,101194.66
2022-11-08T01:56:44.883Z,101200.03
2022-11-08T01:59:16.803Z,101193.44
2022-11-08T02:01:45.386Z,101188.81
2022-11-08T02:04:16.366Z,101188.91
2022-11-08T02:06:45.567Z,101186.28
2022-11-08T02:09:17.059Z,101194.69
2022-11-08T02:11:48.209Z,101187.81
2022-11-08T02:14:17.955Z,101195.09
2022-11-08T02:16:45.943Z,101188.50
2022-11-08T02:19:33.810Z,101193.03
2022-11-08T02:22:07.095Z,101188.47
2022-11-08T02:24:37.372Z,101197.63
2022-11-08T02:27:05.972Z,101196.25
2022-11-08T02:29:36.214Z,101198.84
2022-11-08T02:32:06.459Z,101190.91
2022-11-08T02:34:37.726Z,101189.72
2022-11-08T02:37:07.665Z,101189.50
2022-11-08T02:39:36.962Z,101190.50
2022-11-08T02:42:04.953Z,101186.22
2022-11-08T02:44:32.815Z,101180.81
2022-11-08T02:47:00.716Z,101190.28
2022-11-08T02:49:28.553Z,101187.84
2022-11-08T02:51:56.426Z,101177.84
2022-11-08T02:54:24.297Z,101189.34
2022-11-08T02:56:53.534Z,101194.69
2022-11-08T02:59:21.400Z,101188.94
2022-11-08T03:01:49.530Z,101196.97
2022-11-08T03:04:17.475Z,101192.38
2022-11-08T03:06:45.318Z,101187.44
2022-11-08T03:09:13.901Z,101194.28
2022-11-08T03:11:41.823Z,101190.69
2022-11-08T03:14:11.118Z,101194.06
2022-11-08T03:16:39.049Z,101197.06
2022-11-08T03:19:06.968Z,101192.63
2022-11-08T03:21:36.575Z,101197.81
2022-11-08T03:24:04.548Z,101192.78
2022-11-08T03:26:32.751Z,101191.16
2022-11-08T03:29:00.618Z,101204.13
2022-11-08T03:31:29.866Z,101196.41
2022-11-08T03:33:57.783Z,101200.16
2022-11-08T03:36:26.447Z,101201.16
2022-11-08T03:38:54.481Z,101206.28
2022-11-08T03:41:22.338Z,101203.38
2022-11-08T03:43:50.201Z,101209.34
2022-11-08T03:46:18.049Z,101208.50
2022-11-08T03:48:47.302Z,101208.50
2022-11-08T03:51:15.183Z,101203.69
2022-11-08T03:53:43.103Z,101185.94
2022-11-08T03:56:10.989Z,101204.88
2022-11-08T03:58:38.867Z,101199.41
2022-11-08T04:01:08.023Z,101194.06
2022-11-08T04:03:35.962Z,101203.44
2022-11-08T04:06:05.446Z,101198.16
2022-11-08T04:08:33.290Z,101195.66
2022-11-08T04:11:21.509Z,101203.53
2022-11-08T04:14:07.081Z,101199.53
2022-11-08T04:16:35.039Z,101193.41
2022-11-08T04:19:20.213Z,101189.72
2022-11-08T04:21:52.263Z,101189.06
2022-11-08T04:24:20.378Z,101194.00
2022-11-08T04:26:48.453Z,101192.78
2022-11-08T04:29:16.311Z,101193.50
2022-11-08T04:31:44.225Z,101189.75
2022-11-08T04:34:12.163Z,101190.22
2022-11-08T04:36:40.026Z,101189.28
2022-11-08T04:39:09.360Z,101164.94
2022-11-08T04:41:37.206Z,101186.22
2022-11-08T04:44:05.472Z,101168.09
2022-11-08T04:46:33.331Z,101191.09
2022-11-08T04:49:01.769Z,101183.16
2022-11-08T04:51:32.370Z,101186.41
2022-11-08T04:54:01.787Z,101191.50
2022-11-08T04:56:32.307Z,101189.59
2022-11-08T04:59:01.722Z,101194.59
2022-11-08T05:01:32.393Z,101191.16
2022-11-08T05:04:00.399Z,101197.06
2022-11-08T05:06:30.729Z,101203.22
2022-11-08T05:08:59.974Z,101209.25
2022-11-08T05:11:30.708Z,101211.91
2022-11-08T05:13:58.933Z,101210.47
2022-11-08T05:16:28.704Z,101213.69
2022-11-08T05:18:56.793Z,101215.19
2022-11-08T05:21:42.999Z,101214.66
2022-11-08T05:24:13.228Z,101218.38
2022-11-08T05:26:44.580Z,101223.97
2022-11-08T05:29:13.586Z,101219.94
2022-11-08T05:31:42.283Z,101225.13
2022-11-08T05:34:10.206Z,101234.31
2022-11-08T05:36:38.117Z,101231.41
2022-11-08T05:39:06.062Z,101240.28
2022-11-08T05:41:33.931Z,101233.47
2022-11-08T05:44:03.196Z,101234.63
2022-11-08T05:46:31.212Z,101236.47
2022-11-08T05:48:59.231Z,101250.19
2022-11-08T05:51:27.113Z,101253.38
2022-11-08T05:53:55.022Z,101244.22
2022-11-08T05:56:22.946Z,101256.00
2022-11-08T05:58:50.878Z,101251.41
2022-11-08T06:01:21.373Z,101249.44
2022-11-08T06:03:49.309Z,101253.88
2022-11-08T06:06:19.139Z,101257.78
2022-11-08T06:08:50.729Z,101232.78
2022-11-08T06:11:22.567Z,101252.97
2022-11-08T06:13:50.918Z,101258.22
2022-11-08T06:16:21.169Z,101269.59
2022-11-08T06:18:49.193Z,101271.28
2022-11-08T06:21:18.789Z,101266.16
2022-11-08T06:23:47.341Z,101275.31
2022-11-08T06:26:15.592Z,101269.13
2022-11-08T06:28:43.503Z,101270.34
2022-11-08T06:31:11.696Z,101271.03
2022-11-08T06:33:41.009Z,101269.56
2022-11-08T06:36:09.185Z,101272.16
2022-11-08T06:38:37.134Z,101268.59
2022-11-08T06:41:05.073Z,101271.06
2022-11-08T06:43:33.016Z,101273.78
2022-11-08T06:46:02.639Z,101272.66
2022-11-08T06:48:35.442Z,101268.84
2022-11-08T06:51:05.889Z,101271.44
2022-11-08T06:53:34.255Z,101272.88
2022-11-08T06:56:02.270Z,101272.16
2022-11-08T06:58:30.363Z,101277.72
2022-11-08T07:00:58.314Z,101279.88
2022-11-08T07:03:26.257Z,101275.31
2022-11-08T07:05:54.209Z,101275.00
2022-11-08T07:08:24.482Z,101278.16
2022-11-08T07:10:52.642Z,101278.78
2022-11-08T07:13:21.189Z,101278.53
2022-11-08T07:15:49.728Z,101274.56
2022-11-08T07:18:19.787Z,101274.03
2022-11-08T07:20:48.377Z,101275.25
2022-11-08T07:23:16.461Z,101268.44
2022-11-08T07:25:45.793Z,101273.31
2022-11-08T07:28:17.740Z,101268.41
2022-11-08T07:30:46.519Z,101277.53
2022-11-08T07:33:15.180Z,101259.38
2022-11-08T07:35:43.487Z,101267.78
2022-11-08T07:38:11.388Z,101275.59
2022-11-08T07:40:39.328Z,101277.88
2022-11-08T07:43:12.950Z,101280.59
2022-11-08T07:45:41.592Z,101277.91
2022-11-08T07:48:12.605Z,101265.97
2022-11-08T07:50:41.613Z,101271.22
2022-11-08T07:53:10.038Z,101260.81
2022-11-08T07:55:38.637Z,101271.00
2022-11-08T07:58:08.494Z,101269.19
2022-11-08T08:00:38.050Z,101276.50
2022-11-08T08:03:07.646Z,101267.81
2022-11-08T08:05:37.810Z,101270.56
2022-11-08T08:08:06.574Z,101274.84
2022-11-08T08:10:34.780Z,101280.59
2022-11-08T08:13:03.085Z,101272.19
2022-11-08T08:15:32.390Z,101279.00
2022-11-08T08:18:02.239Z,101282.00
2022-11-08T08:20:30.766Z,101228.22
2022-11-08T08:22:59.049Z,101279.53
2022-11-08T08:25:28.302Z,101285.25
2022-11-08T08:27:58.165Z,101285.63
2022-11-08T08:30:26.668Z,101286.03
2022-11-08T08:33:26.940Z,101293.72
2022-11-08T08:35:53.097Z,101291.66
2022-11-08T08:38:21.660Z,101289.56
2022-11-08T08:40:49.571Z,101290.00
2022-11-08T08:43:17.774Z,101288.84
2022-11-08T08:45:46.073Z,101291.63
2022-11-08T08:48:15.825Z,101287.25
2022-11-08T08:50:43.775Z,101291.13
2022-11-08T08:53:11.914Z,101277.94
2022-11-08T08:55:41.819Z,101291.59
2022-11-08T08:58:10.949Z,101293.66
2022-11-08T09:03:28.717Z,101286.16
2022-11-08T09:05:58.311Z,101293.66
2022-11-08T09:08:26.623Z,101288.16
2022-11-08T09:10:55.742Z,101289.59
2022-11-08T09:13:23.942Z,101293.34
2022-11-08T09:15:52.033Z,101293.25
2022-11-08T09:18:20.352Z,101289.50
2022-11-08T09:20:49.872Z,101288.06
2022-11-08T09:23:18.747Z,101282.72
2022-11-08T09:25:46.932Z,101290.69
2022-11-08T09:28:14.869Z,101290.22
2022-11-08T09:30:42.838Z,101295.63
2022-11-08T09:33:10.844Z,101289.25
2022-11-08T09:35:38.919Z,101284.09
2022-11-08T09:38:08.613Z,101286.84
2022-11-08T09:40:41.186Z,101286.53
2022-11-08T09:43:33.005Z,101283.38
2022-11-08T09:46:01.125Z,101272.53
2022-11-08T09:48:34.085Z,101277.94
2022-11-08T09:51:07.332Z,101280.56
2022-11-08T09:53:45.236Z,101271.88
2022-11-08T09:56:18.024Z,101266.78
2022-11-08T09:58:51.786Z,101265.94
2022-11-08T10:01:24.513Z,101260.31
2022-11-08T10:03:57.902Z,101252.81
2022-11-08T10:06:47.722Z,101255.91
2022-11-08T10:09:34.794Z,101257.81
2022-11-08T10:12:12.335Z,101260.44
2022-11-08T10:14:54.649Z,101254.00
2022-11-08T10:17:40.467Z,101257.06
2022-11-08T10:20:20.467Z,101254.69
2022-11-08T10:22:56.100Z,101254.66
2022-11-08T10:25:31.172Z,101253.59
2022-11-08T10:28:01.736Z,101261.75
2022-11-08T10:30:35.220Z,101247.06
2022-11-08T10:33:03.943Z,101247.41
2022-11-08T10:35:39.430Z,101249.16
2022-11-08T10:38:19.108Z,101250.41
2022-11-08T10:40:57.383Z,101253.25
2022-11-08T10:43:34.972Z,101246.31
2022-11-08T10:46:03.030Z,101244.31
2022-11-08T10:48:35.420Z,101236.97
2022-11-08T10:51:03.361Z,101241.78
2022-11-08T10:53:32.556Z,101239.28
2022-11-08T10:56:04.306Z,101239.63
2022-11-08T10:58:39.054Z,101233.41
2022-11-08T11:01:16.455Z,101234.88
2022-11-08T11:03:44.762Z,101227.19
2022-11-08T11:06:25.106Z,101226.00
2022-11-08T11:08:56.250Z,101228.84
2022-11-08T11:11:28.706Z,101235.03
2022-11-08T11:14:16.427Z,101225.72
2022-11-08T11:16:55.717Z,101222.16
2022-11-08T11:19:25.076Z,101222.06
2022-11-08T11:21:58.204Z,101223.00
2022-11-08T11:24:26.992Z,101221.47
2022-11-08T11:27:07.500Z,101224.13
2022-11-08T11:29:36.856Z,101223.28
2022-11-08T11:32:23.927Z,101221.84
2022-11-08T11:34:55.906Z,101216.22
2022-11-08T11:37:33.315Z,101217.06
2022-11-08T11:40:08.449Z,101223.38
2022-11-08T11:42:46.737Z,101222.63
2022-11-08T11:45:19.961Z,101211.84
2022-11-08T11:47:53.695Z,101222.63
2022-11-08T11:50:24.317Z,101211.81
2022-11-08T11:52:52.318Z,101217.28
2022-11-08T11:55:21.285Z,101218.06
2022-11-08T11:58:06.462Z,101209.53
2022-11-08T12:00:38.461Z,101207.31
2022-11-08T12:03:28.256Z,101209.94
2022-11-08T12:06:18.336Z,101203.22
2022-11-08T12:09:00.358Z,101213.03
2022-11-08T12:11:41.798Z,101209.34
2022-11-08T12:14:25.919Z,101205.84
2022-11-08T12:17:00.886Z,101210.81
2022-11-08T12:19:41.601Z,101203.25
2022-11-08T12:22:26.989Z,101194.81
2022-11-08T12:25:05.097Z,101204.09
2022-11-08T12:27:46.226Z,101203.66
2022-11-08T12:30:19.270Z,101207.25
2022-11-08T12:33:14.032Z,101206.16
2022-11-08T12:35:57.041Z,101199.66
2022-11-08T12:38:32.604Z,101207.84
2022-11-08T12:41:12.921Z,101205.13
2022-11-08T12:43:56.039Z,101204.56
2022-11-08T12:46:26.007Z,101198.88
2022-11-08T12:49:07.550Z,101196.72
2022-11-08T12:51:52.486Z,101183.84
2022-11-08T12:54:26.439Z,101183.44
2022-11-08T12:56:59.172Z,101199.16
2022-11-08T12:59:33.996Z,101201.50
2022-11-08T13:02:05.327Z,101205.47
2022-11-08T13:04:44.057Z,101192.31
2022-11-08T13:07:20.944Z,101199.38
2022-11-08T13:09:57.106Z,101201.03
2022-11-08T13:12:41.895Z,101206.16
2022-11-08T13:15:17.404Z,101207.34
2022-11-08T13:18:33.706Z,101206.69
2022-11-08T13:21:01.706Z,101206.91
2022-11-08T13:23:31.594Z,101206.31
2022-11-08T13:26:17.903Z,101204.69
2022-11-08T13:28:46.665Z,101205.31
2022-11-08T13:31:21.496Z,101197.00
2022-11-08T13:34:08.549Z,101195.44
2022-11-08T13:36:48.661Z,101197.59
2022-11-08T13:39:33.749Z,101203.94
2022-11-08T13:42:05.202Z,101200.00
2022-11-08T13:45:00.314Z,101204.69
2022-11-08T13:47:53.443Z,101190.00
2022-11-08T13:51:00.975Z,101204.81
2022-11-08T13:53:47.925Z,101207.91
2022-11-08T13:56:47.398Z,101198.50
2022-11-08T13:59:57.765Z,101186.22
2022-11-08T14:02:52.596Z,101202.66
2022-11-08T14:05:42.763Z,101204.94
2022-11-08T14:08:18.869Z,101200.53
2022-11-08T14:11:38.554Z,101204.59
2022-11-08T14:14:22.034Z,101206.50
2022-11-08T14:17:01.689Z,101214.72
2022-11-08T14:19:33.393Z,101208.88
2022-11-08T14:22:03.017Z,101195.59
2022-11-08T14:24:37.786Z,101198.94
2022-11-08T14:27:05.740Z,101205.38
2022-11-08T14:29:35.086Z,101207.59
2022-11-08T14:32:05.636Z,101200.00
2022-11-08T14:34:36.662Z,101198.66
2022-11-08T14:37:06.301Z,101211.88
2022-11-08T14:39:35.738Z,101205.44
2022-11-08T14:42:06.671Z,101210.16
2022-11-08T14:44:36.292Z,101206.34
2022-11-08T14:47:05.557Z,101214.69
2022-11-08T14:49:35.074Z,101216.06
2022-11-08T14:52:15.105Z,101208.88
2022-11-08T14:54:45.092Z,101215.53
2022-11-08T14:57:31.641Z,101206.69
2022-11-08T15:00:03.418Z,101204.13
2022-11-08T15:02:31.738Z,101203.22
2022-11-08T15:04:59.718Z,101198.44
2022-11-08T15:07:28.264Z,101200.00
2022-11-08T15:09:56.669Z,101204.72
2022-11-08T15:12:26.280Z,101210.63
2022-11-08T15:15:00.046Z,101212.22
2022-11-08T15:17:35.543Z,101217.16
2022-11-08T15:20:19.258Z,101218.63
2022-11-08T15:22:48.859Z,101220.09
2022-11-08T15:25:30.381Z,101224.50
2022-11-08T15:28:00.029Z,101218.44
2022-11-08T15:30:39.253Z,101225.84
2022-11-08T15:33:22.405Z,101229.19
2022-11-08T15:35:51.583Z,101216.19
2022-11-08T15:38:30.296Z,101227.97
2022-11-08T15:41:00.717Z,101232.78
2022-11-08T15:43:41.228Z,101237.56
2022-11-08T15:46:30.608Z,101234.72
2022-11-08T15:49:00.909Z,101240.66
2022-11-08T15:51:28.781Z,101235.91
2022-11-08T15:53:56.709Z,101244.44
2022-11-08T15:56:24.740Z,101231.72
2022-11-08T15:58:52.895Z,101245.88
2022-11-08T16:01:23.069Z,101250.00
2022-11-08T16:03:51.117Z,101250.31
2022-11-08T16:06:20.423Z,101246.19
2022-11-08T16:08:48.340Z,101243.06
2022-11-08T16:11:21.263Z,101251.16
2022-11-08T16:13:51.404Z,101242.78
2022-11-08T16:16:19.913Z,101249.69
2022-11-08T16:18:47.848Z,101255.75
2022-11-08T16:21:16.116Z,101256.00
2022-11-08T16:23:45.400Z,101258.63
2022-11-08T16:26:17.204Z,101259.41
2022-11-08T16:28:45.760Z,101257.38
2022-11-08T16:31:15.936Z,101255.31
2022-11-08T16:33:45.953Z,101262.69
2022-11-08T16:36:19.193Z,101270.03
2022-11-08T16:38:51.798Z,101266.41
2022-11-08T16:41:19.880Z,101274.72
2022-11-08T16:43:47.873Z,101276.84
2022-11-08T16:46:16.614Z,101268.16
2022-11-08T16:48:47.766Z,101281.66
2022-11-08T16:51:19.380Z,101280.72
2022-11-08T16:53:49.014Z,101281.66
2022-11-08T16:56:17.420Z,101278.97
2022-11-08T16:58:45.502Z,101279.34
2022-11-08T17:01:17.269Z,101284.19
2022-11-08T17:03:45.311Z,101288.75
2022-11-08T17:06:18.169Z,101272.69
2022-11-08T17:08:46.369Z,101289.09
2022-11-08T17:11:18.402Z,101276.91
2022-11-08T17:13:46.914Z,101288.09
2022-11-08T17:16:16.202Z,101281.44
2022-11-08T17:18:47.462Z,101283.06
2022-11-08T17:24:06.811Z,101284.44
2022-11-08T17:26:36.191Z,101263.47
2022-11-08T17:29:05.215Z,101282.41
2022-11-08T17:31:33.131Z,101285.88
2022-11-08T17:34:01.055Z,101287.16
2022-11-08T17:36:28.997Z,101281.78
2022-11-08T17:38:56.940Z,101286.16
2022-11-08T17:41:24.910Z,101280.09
2022-11-08T17:43:54.323Z,101281.59
2022-11-08T17:46:22.437Z,101276.00
2022-11-08T17:48:50.586Z,101273.41
2022-11-08T17:51:18.565Z,101267.06
2022-11-08T17:53:46.476Z,101271.19
2022-11-08T17:56:14.636Z,101268.75
2022-11-08T17:58:42.588Z,101253.56
2022-11-08T18:01:12.005Z,101265.38
2022-11-08T18:03:40.077Z,101257.38
2022-11-08T18:06:11.548Z,101250.84
2022-11-08T18:08:40.166Z,101260.16
2022-11-08T18:11:08.116Z,101265.28
2022-11-08T18:13:36.282Z,101256.63
2022-11-08T18:16:09.117Z,101261.06
2022-11-08T18:18:39.347Z,101263.31
2022-11-08T18:21:08.213Z,101262.34
2022-11-08T18:23:36.469Z,101269.16
2022-11-08T18:26:05.182Z,101269.50
2022-11-08T18:28:33.148Z,101269.94
2022-11-08T18:31:05.961Z,101275.09
2022-11-08T18:33:34.074Z,101275.00
2022-11-08T18:36:06.065Z,101279.16
2022-11-08T18:38:35.582Z,101275.31
2022-11-08T18:41:03.615Z,101277.31
2022-11-08T18:43:31.719Z,101272.28
2022-11-08T18:46:04.061Z,101277.41
2022-11-08T18:48:35.627Z,101279.00
2022-11-08T18:51:05.253Z,101274.63
2022-11-08T18:53:33.250Z,101272.09
2022-11-08T18:56:01.573Z,101276.41
2022-11-08T18:58:29.715Z,101283.22
2022-11-08T19:00:58.738Z,101281.28
2022-11-08T19:03:27.283Z,101283.81
2022-11-08T19:05:55.776Z,101292.63
2022-11-08T19:08:27.059Z,101293.66
2022-11-08T19:10:56.878Z,101288.28
2022-11-08T19:13:27.132Z,101284.97
2022-11-08T19:15:58.997Z,101285.25
2022-11-08T19:18:27.521Z,101292.63
2022-11-08T19:20:57.044Z,101290.47
2022-11-08T19:23:27.003Z,101295.19
2022-11-08T19:25:56.433Z,101293.81
2022-11-08T19:28:27.956Z,101298.94
2022-11-08T19:30:58.301Z,101288.50
2022-11-08T19:33:28.308Z,101297.41
2022-11-08T19:35:56.851Z,101296.13
2022-11-08T19:38:26.162Z,101294.28
2022-11-08T19:40:54.078Z,101302.88
2022-11-08T19:43:22.039Z,101293.53
2022-11-08T19:45:54.455Z,101300.34
2022-11-08T19:48:22.728Z,101291.78
2022-11-08T19:50:50.826Z,101300.50
2022-11-08T19:53:18.733Z,101307.41
2022-11-08T19:55:48.053Z,101308.06
2022-11-08T19:58:16.342Z,101312.72
2022-11-08T20:00:44.465Z,101323.22
2022-11-08T20:03:12.400Z,101321.59
2022-11-08T20:05:40.338Z,101325.47
2022-11-08T20:08:09.774Z,101326.00
2022-11-08T20:10:37.698Z,101327.59
2022-11-08T20:13:08.888Z,101328.00
2022-11-08T20:15:37.004Z,101320.34
2022-11-08T20:18:05.223Z,101322.16
2022-11-08T20:20:33.216Z,101322.94
2022-11-08T20:23:01.169Z,101324.06
2022-11-08T20:25:29.145Z,101327.19
2022-11-08T20:27:57.058Z,101329.53
2022-11-08T20:30:26.581Z,101331.59
2022-11-08T20:32:54.750Z,101332.13
2022-11-08T20:35:23.394Z,101338.41
2022-11-08T20:37:51.729Z,101327.03
2022-11-08T20:40:19.670Z,101336.88
2022-11-08T20:42:47.574Z,101328.19
2022-11-08T20:45:15.704Z,101334.28
2022-11-08T20:47:45.022Z,101331.06
2022-11-08T20:50:12.975Z,101333.19
2022-11-08T20:52:40.906Z,101334.34
2022-11-08T20:55:09.462Z,101333.41
2022-11-08T20:57:37.372Z,101336.69
2022-11-08T21:00:13.078Z,101328.47
2022-11-08T21:02:41.815Z,101332.03
2022-11-08T21:05:11.322Z,101336.63
2022-11-08T21:08:01.963Z,101333.97
2022-11-08T21:10:42.478Z,101331.19
2022-11-08T21:13:11.147Z,101334.72
2022-11-08T21:15:39.097Z,101331.91
2022-11-08T21:18:07.031Z,101334.56
2022-11-08T21:20:36.430Z,101335.16
2022-11-08T21:23:04.372Z,101329.69
2022-11-08T21:25:32.570Z,101328.78
2022-11-08T21:28:00.606Z,101336.63
2022-11-08T21:30:29.509Z,101333.41
2022-11-08T21:32:57.442Z,101340.41
2022-11-08T21:35:25.539Z,101341.66
2022-11-08T21:37:54.938Z,101334.94
2022-11-08T21:40:22.866Z,101339.00
2022-11-08T21:42:50.781Z,101337.03
2022-11-08T21:45:18.887Z,101334.50
2022-11-08T21:47:50.429Z,101337.88
2022-11-08T21:50:18.663Z,101345.75
2022-11-08T21:52:46.888Z,101331.56
2022-11-08T21:55:16.869Z,101346.25
2022-11-08T21:57:45.252Z,101336.06
2022-11-08T22:00:14.494Z,101349.97
2022-11-08T22:02:42.617Z,101345.34
2022-11-08T22:05:11.377Z,101336.78
2022-11-08T22:07:39.503Z,101345.16
2022-11-08T22:10:08.704Z,101337.28
2022-11-08T22:12:38.006Z,101350.97
2022-11-08T22:15:06.912Z,101348.00
2022-11-08T22:17:35.040Z,101357.06
2022-11-08T22:20:03.368Z,101355.72
2022-11-08T22:22:31.288Z,101355.38
2022-11-08T22:24:59.206Z,101361.78
2022-11-08T22:27:27.190Z,101363.03
2022-11-08T22:29:56.502Z,101363.50
2022-11-08T22:32:24.421Z,101362.91
2022-11-08T22:34:52.350Z,101368.78
2022-11-08T22:37:20.288Z,101367.63
2022-11-08T22:39:48.220Z,101369.19
2022-11-08T22:42:16.252Z,101349.44
2022-11-08T22:44:44.398Z,101370.72
2022-11-08T22:47:13.900Z,101355.00
2022-11-08T22:49:44.986Z,101368.69
2022-11-08T22:52:13.211Z,101374.84
2022-11-08T22:54:41.152Z,101375.88
2022-11-08T22:57:09.068Z,101382.19
2022-11-08T22:59:36.963Z,101371.06
2022-11-08T23:02:04.877Z,101371.06
2022-11-08T23:04:34.182Z,101371.13
2022-11-08T23:07:02.165Z,101365.81
2022-11-08T23:09:30.143Z,101368.53
2022-11-08T23:12:15.292Z,101372.31
2022-11-08T23:15:00.688Z,101370.81
2022-11-08T23:17:28.585Z,101369.34
2022-11-08T23:20:14.864Z,101364.50
2022-11-08T23:23:00.260Z,101373.84
2022-11-08T23:25:28.163Z,101376.44
2022-11-08T23:28:13.403Z,101369.72
2022-11-08T23:30:58.764Z,101363.06
2022-11-08T23:33:26.682Z,101363.22
2022-11-08T23:36:15.783Z,101359.13
2022-11-08T23:38:44.705Z,101369.41
2022-11-08T23:41:30.112Z,101338.72
2022-11-08T23:44:15.457Z,101362.22
2022-11-08T23:46:43.385Z,101360.69
2022-11-08T23:49:11.294Z,101363.81
2022-11-08T23:51:40.664Z,101357.13
2022-11-08T23:54:08.736Z,101369.03
2022-11-08T23:56:36.680Z,101363.75
2022-11-08T23:59:04.729Z,101371.47
